sensor_id;sensor_type;location;lat;lon;timestamp;temperature;humidity
74155;DHT22;62509;46.248;6.018;2023-12-20T00:04:35;2.30;99.90
74155;DHT22;62509;46.248;6.018;2023-12-20T00:09:38;2.40;99.90
74155;DHT22;62509;46.248;6.018;2023-12-20T00:14:43;2.50;99.90
74155;DHT22;62509;46.248;6.018;2023-12-20T00:19:46;2.60;99.90
74155;DHT22;62509;46.248;6.018;2023-12-20T00:24:50;2.60;99.90
74155;DHT22;62509;46.248;6.018;2023-12-20T00:29:55;2.60;99.90
74155;DHT22;62509;46.248;6.018;2023-12-20T00:34:58;2.60;99.90
74155;DHT22;62509;46.248;6.018;2023-12-20T00:40:01;2.60;99.90
74155;DHT22;62509;46.248;6.018;2023-12-20T00:45:07;2.60;99.90
74155;DHT22;62509;46.248;6.018;2023-12-20T00:50:10;2.70;99.90
74155;DHT22;62509;46.248;6.018;2023-12-20T00:55:14;2.70;99.90
74155;DHT22;62509;46.248;6.018;2023-12-20T01:00:19;2.80;99.90
74155;DHT22;62509;46.248;6.018;2023-12-20T01:05:23;2.90;99.90
74155;DHT22;62509;46.248;6.018;2023-12-20T01:10:26;3.10;99.90
74155;DHT22;62509;46.248;6.018;2023-12-20T01:15:32;3.30;99.90
74155;DHT22;62509;46.248;6.018;2023-12-20T01:20:35;3.30;99.90
74155;DHT22;62509;46.248;6.018;2023-12-20T01:25:39;3.40;99.90
74155;DHT22;62509;46.248;6.018;2023-12-20T01:30:43;3.40;99.90
74155;DHT22;62509;46.248;6.018;2023-12-20T01:35:47;3.40;99.90
74155;DHT22;62509;46.248;6.018;2023-12-20T01:40:52;3.40;99.90
74155;DHT22;62509;46.248;6.018;2023-12-20T01:45:57;3.40;99.90
74155;DHT22;62509;46.248;6.018;2023-12-20T01:51:00;3.40;99.90
74155;DHT22;62509;46.248;6.018;2023-12-20T01:56:05;3.40;99.90
74155;DHT22;62509;46.248;6.018;2023-12-20T02:01:10;3.30;99.90
74155;DHT22;62509;46.248;6.018;2023-12-20T02:06:14;3.30;99.90
74155;DHT22;62509;46.248;6.018;2023-12-20T02:11:17;3.40;99.90
74155;DHT22;62509;46.248;6.018;2023-12-20T02:16:22;3.40;99.90
74155;DHT22;62509;46.248;6.018;2023-12-20T02:21:31;3.50;99.90
74155;DHT22;62509;46.248;6.018;2023-12-20T02:26:35;3.50;99.90
74155;DHT22;62509;46.248;6.018;2023-12-20T02:31:38;3.70;99.90
74155;DHT22;62509;46.248;6.018;2023-12-20T02:36:43;3.60;99.90
74155;DHT22;62509;46.248;6.018;2023-12-20T02:41:46;3.70;99.90
74155;DHT22;62509;46.248;6.018;2023-12-20T02:46:50;3.80;99.90
74155;DHT22;62509;46.248;6.018;2023-12-20T02:51:54;3.90;99.90
74155;DHT22;62509;46.248;6.018;2023-12-20T02:56:58;3.80;99.90
74155;DHT22;62509;46.248;6.018;2023-12-20T03:02:01;3.80;99.90
74155;DHT22;62509;46.248;6.018;2023-12-20T03:07:06;3.70;99.90
74155;DHT22;62509;46.248;6.018;2023-12-20T03:12:09;3.70;99.90
74155;DHT22;62509;46.248;6.018;2023-12-20T03:17:12;3.90;99.90
74155;DHT22;62509;46.248;6.018;2023-12-20T03:22:17;3.90;99.90
74155;DHT22;62509;46.248;6.018;2023-12-20T03:27:20;4.10;99.90
74155;DHT22;62509;46.248;6.018;2023-12-20T03:32:23;4.00;99.90
74155;DHT22;62509;46.248;6.018;2023-12-20T03:37:28;4.10;99.90
74155;DHT22;62509;46.248;6.018;2023-12-20T03:42:32;4.00;99.90
74155;DHT22;62509;46.248;6.018;2023-12-20T03:47:35;4.10;99.90
74155;DHT22;62509;46.248;6.018;2023-12-20T03:52:39;4.00;99.90
74155;DHT22;62509;46.248;6.018;2023-12-20T03:57:43;4.00;99.90
74155;DHT22;62509;46.248;6.018;2023-12-20T04:02:46;4.00;99.90
74155;DHT22;62509;46.248;6.018;2023-12-20T04:07:51;4.10;99.90
74155;DHT22;62509;46.248;6.018;2023-12-20T04:12:54;4.10;99.90
74155;DHT22;62509;46.248;6.018;2023-12-20T04:17:58;4.10;99.90
74155;DHT22;62509;46.248;6.018;2023-12-20T04:23:03;4.10;99.90
74155;DHT22;62509;46.248;6.018;2023-12-20T04:28:06;4.20;99.90
74155;DHT22;62509;46.248;6.018;2023-12-20T04:33:09;4.20;99.90
74155;DHT22;62509;46.248;6.018;2023-12-20T04:38:14;4.20;99.90
74155;DHT22;62509;46.248;6.018;2023-12-20T04:43:17;4.20;99.90
74155;DHT22;62509;46.248;6.018;2023-12-20T04:48:21;4.20;99.90
74155;DHT22;62509;46.248;6.018;2023-12-20T04:53:25;4.10;99.90
74155;DHT22;62509;46.248;6.018;2023-12-20T04:58:29;4.00;99.90
74155;DHT22;62509;46.248;6.018;2023-12-20T05:03:32;4.00;99.90
74155;DHT22;62509;46.248;6.018;2023-12-20T05:08:37;4.00;99.90
74155;DHT22;62509;46.248;6.018;2023-12-20T05:13:40;4.10;99.90
74155;DHT22;62509;46.248;6.018;2023-12-20T05:18:51;4.00;99.90
74155;DHT22;62509;46.248;6.018;2023-12-20T05:23:56;4.00;99.90
74155;DHT22;62509;46.248;6.018;2023-12-20T05:28:59;4.00;99.90
74155;DHT22;62509;46.248;6.018;2023-12-20T05:34:02;4.00;99.90
74155;DHT22;62509;46.248;6.018;2023-12-20T05:39:07;4.00;99.90
74155;DHT22;62509;46.248;6.018;2023-12-20T05:44:11;4.00;99.90
74155;DHT22;62509;46.248;6.018;2023-12-20T05:49:14;4.00;99.90
74155;DHT22;62509;46.248;6.018;2023-12-20T05:54:19;4.20;99.90
74155;DHT22;62509;46.248;6.018;2023-12-20T05:59:23;4.20;99.90
74155;DHT22;62509;46.248;6.018;2023-12-20T06:04:26;4.10;99.90
74155;DHT22;62509;46.248;6.018;2023-12-20T06:09:31;4.10;99.90
74155;DHT22;62509;46.248;6.018;2023-12-20T06:14:34;4.10;99.90
74155;DHT22;62509;46.248;6.018;2023-12-20T06:19:37;4.20;99.90
74155;DHT22;62509;46.248;6.018;2023-12-20T06:24:42;4.10;99.90
74155;DHT22;62509;46.248;6.018;2023-12-20T06:29:45;4.10;99.90
74155;DHT22;62509;46.248;6.018;2023-12-20T06:34:48;4.10;99.90
74155;DHT22;62509;46.248;6.018;2023-12-20T06:39:53;4.00;99.90
74155;DHT22;62509;46.248;6.018;2023-12-20T06:44:58;4.10;99.90
74155;DHT22;62509;46.248;6.018;2023-12-20T06:50:01;4.10;99.90
74155;DHT22;62509;46.248;6.018;2023-12-20T06:55:06;4.10;99.90
74155;DHT22;62509;46.248;6.018;2023-12-20T07:00:12;4.10;99.90
74155;DHT22;62509;46.248;6.018;2023-12-20T07:05:16;4.20;99.90
74155;DHT22;62509;46.248;6.018;2023-12-20T07:10:23;4.10;99.90
74155;DHT22;62509;46.248;6.018;2023-12-20T07:15:26;4.10;99.90
74155;DHT22;62509;46.248;6.018;2023-12-20T07:20:31;4.10;99.90
74155;DHT22;62509;46.248;6.018;2023-12-20T07:25:36;4.00;99.90
74155;DHT22;62509;46.248;6.018;2023-12-20T07:30:39;4.10;99.90
74155;DHT22;62509;46.248;6.018;2023-12-20T07:35:42;4.00;99.90
74155;DHT22;62509;46.248;6.018;2023-12-20T07:40:48;4.00;99.90
74155;DHT22;62509;46.248;6.018;2023-12-20T07:45:51;4.00;99.90
74155;DHT22;62509;46.248;6.018;2023-12-20T07:50:55;4.10;99.90
74155;DHT22;62509;46.248;6.018;2023-12-20T07:55:59;4.00;99.90
74155;DHT22;62509;46.248;6.018;2023-12-20T08:01:03;4.10;99.90
74155;DHT22;62509;46.248;6.018;2023-12-20T08:06:06;4.00;99.90
74155;DHT22;62509;46.248;6.018;2023-12-20T08:11:11;4.00;99.90
74155;DHT22;62509;46.248;6.018;2023-12-20T08:16:14;4.00;99.90
74155;DHT22;62509;46.248;6.018;2023-12-20T08:21:19;4.00;99.90
74155;DHT22;62509;46.248;6.018;2023-12-20T08:26:25;3.90;99.90
74155;DHT22;62509;46.248;6.018;2023-12-20T08:31:28;3.90;99.90
74155;DHT22;62509;46.248;6.018;2023-12-20T08:36:32;3.80;99.90
74155;DHT22;62509;46.248;6.018;2023-12-20T08:41:39;3.80;99.90
74155;DHT22;62509;46.248;6.018;2023-12-20T08:46:43;3.80;99.90
74155;DHT22;62509;46.248;6.018;2023-12-20T08:51:46;4.00;99.90
74155;DHT22;62509;46.248;6.018;2023-12-20T08:56:51;4.20;99.90
74155;DHT22;62509;46.248;6.018;2023-12-20T09:01:54;4.60;99.90
74155;DHT22;62509;46.248;6.018;2023-12-20T09:06:59;4.90;99.90
74155;DHT22;62509;46.248;6.018;2023-12-20T09:12:04;5.20;99.90
74155;DHT22;62509;46.248;6.018;2023-12-20T09:17:08;5.50;99.90
74155;DHT22;62509;46.248;6.018;2023-12-20T09:22:13;5.40;99.90
74155;DHT22;62509;46.248;6.018;2023-12-20T09:27:18;5.40;99.90
74155;DHT22;62509;46.248;6.018;2023-12-20T09:32:22;5.50;99.90
74155;DHT22;62509;46.248;6.018;2023-12-20T09:37:26;5.80;99.90
74155;DHT22;62509;46.248;6.018;2023-12-20T09:42:33;6.00;99.90
74155;DHT22;62509;46.248;6.018;2023-12-20T09:47:41;6.10;99.90
74155;DHT22;62509;46.248;6.018;2023-12-20T09:52:45;6.30;99.90
74155;DHT22;62509;46.248;6.018;2023-12-20T09:57:50;6.40;99.90
74155;DHT22;62509;46.248;6.018;2023-12-20T10:02:55;6.50;99.90
74155;DHT22;62509;46.248;6.018;2023-12-20T10:08:00;6.60;99.90
74155;DHT22;62509;46.248;6.018;2023-12-20T10:13:06;6.80;99.90
74155;DHT22;62509;46.248;6.018;2023-12-20T10:18:11;6.80;99.90
74155;DHT22;62509;46.248;6.018;2023-12-20T10:23:15;6.70;99.90
74155;DHT22;62509;46.248;6.018;2023-12-20T10:28:21;6.80;99.90
74155;DHT22;62509;46.248;6.018;2023-12-20T10:33:27;6.90;99.90
74155;DHT22;62509;46.248;6.018;2023-12-20T10:38:31;7.20;99.90
74155;DHT22;62509;46.248;6.018;2023-12-20T10:43:36;7.30;99.90
74155;DHT22;62509;46.248;6.018;2023-12-20T10:48:40;7.30;99.90
74155;DHT22;62509;46.248;6.018;2023-12-20T10:53:44;7.50;99.90
74155;DHT22;62509;46.248;6.018;2023-12-20T10:58:53;7.50;99.90
74155;DHT22;62509;46.248;6.018;2023-12-20T11:03:57;7.60;99.90
74155;DHT22;62509;46.248;6.018;2023-12-20T11:09:10;7.80;99.90
74155;DHT22;62509;46.248;6.018;2023-12-20T11:14:19;8.00;99.90
74155;DHT22;62509;46.248;6.018;2023-12-20T11:19:25;8.00;99.90
74155;DHT22;62509;46.248;6.018;2023-12-20T11:24:28;8.00;99.90
74155;DHT22;62509;46.248;6.018;2023-12-20T11:29:35;8.20;99.90
74155;DHT22;62509;46.248;6.018;2023-12-20T11:34:39;8.30;99.90
74155;DHT22;62509;46.248;6.018;2023-12-20T11:39:44;8.30;99.90
74155;DHT22;62509;46.248;6.018;2023-12-20T11:44:51;8.30;99.90
74155;DHT22;62509;46.248;6.018;2023-12-20T11:49:54;8.40;99.90
74155;DHT22;62509;46.248;6.018;2023-12-20T11:54:58;8.60;99.90
74155;DHT22;62509;46.248;6.018;2023-12-20T12:00:03;8.80;99.90
74155;DHT22;62509;46.248;6.018;2023-12-20T12:05:08;8.90;99.90
74155;DHT22;62509;46.248;6.018;2023-12-20T12:10:12;9.20;99.90
74155;DHT22;62509;46.248;6.018;2023-12-20T12:15:18;9.20;99.90
74155;DHT22;62509;46.248;6.018;2023-12-20T12:20:21;9.20;99.90
74155;DHT22;62509;46.248;6.018;2023-12-20T12:25:25;9.10;99.40
74155;DHT22;62509;46.248;6.018;2023-12-20T12:30:30;9.10;97.10
74155;DHT22;62509;46.248;6.018;2023-12-20T12:35:40;9.40;95.90
74155;DHT22;62509;46.248;6.018;2023-12-20T12:40:43;9.40;77.20
74155;DHT22;62509;46.248;6.018;2023-12-20T12:45:48;9.10;71.10
74155;DHT22;62509;46.248;6.018;2023-12-20T12:50:51;9.20;70.20
74155;DHT22;62509;46.248;6.018;2023-12-20T12:55:56;8.70;65.70
74155;DHT22;62509;46.248;6.018;2023-12-20T13:01:00;8.50;68.30
74155;DHT22;62509;46.248;6.018;2023-12-20T13:06:05;8.30;65.90
74155;DHT22;62509;46.248;6.018;2023-12-20T13:11:10;8.30;64.40
74155;DHT22;62509;46.248;6.018;2023-12-20T13:16:15;8.20;61.90
74155;DHT22;62509;46.248;6.018;2023-12-20T13:21:18;8.20;60.50
74155;DHT22;62509;46.248;6.018;2023-12-20T13:26:21;8.10;64.40
74155;DHT22;62509;46.248;6.018;2023-12-20T13:31:26;8.40;61.80
74155;DHT22;62509;46.248;6.018;2023-12-20T13:36:30;8.40;59.90
74155;DHT22;62509;46.248;6.018;2023-12-20T13:41:33;8.20;64.70
74155;DHT22;62509;46.248;6.018;2023-12-20T13:46:38;8.10;67.20
74155;DHT22;62509;46.248;6.018;2023-12-20T13:51:41;8.00;61.80
74155;DHT22;62509;46.248;6.018;2023-12-20T13:56:45;7.70;60.40
74155;DHT22;62509;46.248;6.018;2023-12-20T14:02:08;7.70;60.30
74155;DHT22;62509;46.248;6.018;2023-12-20T14:07:11;7.80;58.40
74155;DHT22;62509;46.248;6.018;2023-12-20T14:12:14;7.90;58.10
74155;DHT22;62509;46.248;6.018;2023-12-20T14:17:19;7.90;55.50
74155;DHT22;62509;46.248;6.018;2023-12-20T14:22:22;7.80;54.30
74155;DHT22;62509;46.248;6.018;2023-12-20T14:27:27;7.80;59.40
74155;DHT22;62509;46.248;6.018;2023-12-20T14:32:34;7.70;58.30
74155;DHT22;62509;46.248;6.018;2023-12-20T14:37:38;7.80;57.70
74155;DHT22;62509;46.248;6.018;2023-12-20T14:42:42;7.80;55.60
74155;DHT22;62509;46.248;6.018;2023-12-20T14:47:47;7.80;56.10
74155;DHT22;62509;46.248;6.018;2023-12-20T14:52:51;7.80;56.60
74155;DHT22;62509;46.248;6.018;2023-12-20T14:57:56;7.70;58.80
74155;DHT22;62509;46.248;6.018;2023-12-20T15:03:01;7.40;56.70
74155;DHT22;62509;46.248;6.018;2023-12-20T15:08:06;7.10;57.60
74155;DHT22;62509;46.248;6.018;2023-12-20T15:13:10;7.00;56.00
74155;DHT22;62509;46.248;6.018;2023-12-20T15:18:15;6.90;57.10
74155;DHT22;62509;46.248;6.018;2023-12-20T15:23:18;6.80;55.30
74155;DHT22;62509;46.248;6.018;2023-12-20T15:28:23;6.70;56.30
74155;DHT22;62509;46.248;6.018;2023-12-20T15:33:29;6.50;60.70
74155;DHT22;62509;46.248;6.018;2023-12-20T15:38:33;6.30;62.10
74155;DHT22;62509;46.248;6.018;2023-12-20T15:43:37;6.10;63.20
74155;DHT22;62509;46.248;6.018;2023-12-20T15:48:41;5.90;64.30
74155;DHT22;62509;46.248;6.018;2023-12-20T15:53:45;5.70;65.20
74155;DHT22;62509;46.248;6.018;2023-12-20T15:58:48;5.70;63.40
74155;DHT22;62509;46.248;6.018;2023-12-20T16:03:55;5.50;65.70
74155;DHT22;62509;46.248;6.018;2023-12-20T16:09:00;5.40;66.60
74155;DHT22;62509;46.248;6.018;2023-12-20T16:14:04;5.40;66.90
74155;DHT22;62509;46.248;6.018;2023-12-20T16:19:08;5.30;65.20
74155;DHT22;62509;46.248;6.018;2023-12-20T16:24:12;5.20;67.40
74155;DHT22;62509;46.248;6.018;2023-12-20T16:29:15;5.10;73.60
74155;DHT22;62509;46.248;6.018;2023-12-20T16:34:20;4.70;84.40
74155;DHT22;62509;46.248;6.018;2023-12-20T16:39:23;4.50;86.00
74155;DHT22;62509;46.248;6.018;2023-12-20T16:44:26;4.40;94.40
74155;DHT22;62509;46.248;6.018;2023-12-20T16:49:31;4.20;97.50
74155;DHT22;62509;46.248;6.018;2023-12-20T16:54:34;4.10;98.00
74155;DHT22;62509;46.248;6.018;2023-12-20T16:59:41;4.00;98.40
74155;DHT22;62509;46.248;6.018;2023-12-20T17:04:47;4.00;99.80
74155;DHT22;62509;46.248;6.018;2023-12-20T17:09:51;3.90;99.90
74155;DHT22;62509;46.248;6.018;2023-12-20T17:14:54;3.80;99.90
74155;DHT22;62509;46.248;6.018;2023-12-20T17:19:59;3.70;99.90
74155;DHT22;62509;46.248;6.018;2023-12-20T17:25:03;3.70;99.90
74155;DHT22;62509;46.248;6.018;2023-12-20T17:30:07;3.60;99.90
74155;DHT22;62509;46.248;6.018;2023-12-20T17:35:12;3.60;99.90
74155;DHT22;62509;46.248;6.018;2023-12-20T17:40:16;3.50;99.90
74155;DHT22;62509;46.248;6.018;2023-12-20T17:45:19;3.30;99.90
74155;DHT22;62509;46.248;6.018;2023-12-20T17:50:24;3.30;99.90
74155;DHT22;62509;46.248;6.018;2023-12-20T17:55:28;3.20;99.90
74155;DHT22;62509;46.248;6.018;2023-12-20T18:00:33;3.10;99.90
74155;DHT22;62509;46.248;6.018;2023-12-20T18:05:38;3.30;99.90
74155;DHT22;62509;46.248;6.018;2023-12-20T18:10:41;3.40;99.90
74155;DHT22;62509;46.248;6.018;2023-12-20T18:15:45;3.60;99.90
74155;DHT22;62509;46.248;6.018;2023-12-20T18:20:50;3.50;99.90
74155;DHT22;62509;46.248;6.018;2023-12-20T18:25:53;3.40;99.90
74155;DHT22;62509;46.248;6.018;2023-12-20T18:30:57;3.10;99.90
74155;DHT22;62509;46.248;6.018;2023-12-20T18:36:02;3.00;99.90
74155;DHT22;62509;46.248;6.018;2023-12-20T18:41:06;2.80;99.90
74155;DHT22;62509;46.248;6.018;2023-12-20T18:46:09;2.70;99.90
74155;DHT22;62509;46.248;6.018;2023-12-20T18:51:13;2.70;99.90
74155;DHT22;62509;46.248;6.018;2023-12-20T18:56:17;2.70;99.90
74155;DHT22;62509;46.248;6.018;2023-12-20T19:01:20;2.70;99.90
74155;DHT22;62509;46.248;6.018;2023-12-20T19:06:25;2.60;99.90
74155;DHT22;62509;46.248;6.018;2023-12-20T19:11:28;2.50;99.90
74155;DHT22;62509;46.248;6.018;2023-12-20T19:16:33;2.70;99.90
74155;DHT22;62509;46.248;6.018;2023-12-20T19:21:38;2.90;99.90
74155;DHT22;62509;46.248;6.018;2023-12-20T19:26:41;3.10;99.90
74155;DHT22;62509;46.248;6.018;2023-12-20T19:31:44;2.90;99.90
74155;DHT22;62509;46.248;6.018;2023-12-20T19:36:51;2.70;99.90
74155;DHT22;62509;46.248;6.018;2023-12-20T19:41:54;2.70;99.90
74155;DHT22;62509;46.248;6.018;2023-12-20T19:46:57;2.40;99.90
74155;DHT22;62509;46.248;6.018;2023-12-20T19:52:02;2.40;99.90
74155;DHT22;62509;46.248;6.018;2023-12-20T19:57:06;2.60;99.90
74155;DHT22;62509;46.248;6.018;2023-12-20T20:02:09;2.60;99.90
74155;DHT22;62509;46.248;6.018;2023-12-20T20:07:14;2.60;99.90
74155;DHT22;62509;46.248;6.018;2023-12-20T20:12:21;2.70;99.90
74155;DHT22;62509;46.248;6.018;2023-12-20T20:17:24;2.70;99.90
74155;DHT22;62509;46.248;6.018;2023-12-20T20:22:29;2.60;99.90
74155;DHT22;62509;46.248;6.018;2023-12-20T20:27:33;2.70;99.90
74155;DHT22;62509;46.248;6.018;2023-12-20T20:32:37;2.80;99.90
74155;DHT22;62509;46.248;6.018;2023-12-20T20:37:42;2.80;99.90
74155;DHT22;62509;46.248;6.018;2023-12-20T20:42:45;2.70;99.90
74155;DHT22;62509;46.248;6.018;2023-12-20T20:47:49;2.80;99.90
74155;DHT22;62509;46.248;6.018;2023-12-20T20:53:09;2.80;99.90
74155;DHT22;62509;46.248;6.018;2023-12-20T20:58:12;3.00;99.90
74155;DHT22;62509;46.248;6.018;2023-12-20T21:03:15;2.90;99.90
74155;DHT22;62509;46.248;6.018;2023-12-20T21:08:20;2.90;99.90
74155;DHT22;62509;46.248;6.018;2023-12-20T21:13:23;2.90;99.90
74155;DHT22;62509;46.248;6.018;2023-12-20T21:18:26;2.90;99.90
74155;DHT22;62509;46.248;6.018;2023-12-20T21:23:31;3.00;99.90
74155;DHT22;62509;46.248;6.018;2023-12-20T21:28:34;3.00;99.90
74155;DHT22;62509;46.248;6.018;2023-12-20T21:33:38;3.10;99.90
74155;DHT22;62509;46.248;6.018;2023-12-20T21:38:43;3.20;99.90
74155;DHT22;62509;46.248;6.018;2023-12-20T21:43:47;3.10;99.90
74155;DHT22;62509;46.248;6.018;2023-12-20T21:48:50;3.20;99.90
74155;DHT22;62509;46.248;6.018;2023-12-20T21:53:55;3.20;99.90
74155;DHT22;62509;46.248;6.018;2023-12-20T21:59:01;3.30;99.90
74155;DHT22;62509;46.248;6.018;2023-12-20T22:04:05;3.30;99.90
74155;DHT22;62509;46.248;6.018;2023-12-20T22:09:11;3.40;99.90
74155;DHT22;62509;46.248;6.018;2023-12-20T22:14:14;3.50;99.90
74155;DHT22;62509;46.248;6.018;2023-12-20T22:19:17;3.50;99.90
74155;DHT22;62509;46.248;6.018;2023-12-20T22:24:22;3.50;99.90
74155;DHT22;62509;46.248;6.018;2023-12-20T22:29:26;3.50;99.90
74155;DHT22;62509;46.248;6.018;2023-12-20T22:34:30;3.40;99.90
74155;DHT22;62509;46.248;6.018;2023-12-20T22:39:35;3.30;99.90
74155;DHT22;62509;46.248;6.018;2023-12-20T22:44:38;3.30;99.90
74155;DHT22;62509;46.248;6.018;2023-12-20T22:49:41;3.00;99.90
74155;DHT22;62509;46.248;6.018;2023-12-20T22:54:46;3.00;99.90
74155;DHT22;62509;46.248;6.018;2023-12-20T22:59:51;3.20;99.90
74155;DHT22;62509;46.248;6.018;2023-12-20T23:04:55;3.30;99.90
74155;DHT22;62509;46.248;6.018;2023-12-20T23:09:59;3.40;99.90
74155;DHT22;62509;46.248;6.018;2023-12-20T23:15:04;3.30;99.90
74155;DHT22;62509;46.248;6.018;2023-12-20T23:20:08;3.40;99.90
74155;DHT22;62509;46.248;6.018;2023-12-20T23:25:13;3.40;99.90
74155;DHT22;62509;46.248;6.018;2023-12-20T23:30:17;3.50;99.90
74155;DHT22;62509;46.248;6.018;2023-12-20T23:35:20;3.60;99.90
74155;DHT22;62509;46.248;6.018;2023-12-20T23:40:27;3.60;99.90
74155;DHT22;62509;46.248;6.018;2023-12-20T23:45:31;3.70;99.90
74155;DHT22;62509;46.248;6.018;2023-12-20T23:50:34;3.70;99.90
74155;DHT22;62509;46.248;6.018;2023-12-20T23:55:39;3.80;99.90
